sensor_id;sensor_type;location;lat;lon;timestamp;pressure;altitude;pressure_sealevel;temperature;humidity
18678;BME280;9469;51.114;13.914;2023-05-19T00:00:41;99678.59;;;11.99;80.69
18678;BME280;9469;51.114;13.914;2023-05-19T00:05:52;99671.34;;;11.81;80.79
18678;BME280;9469;51.114;13.914;2023-05-19T00:11:02;99668.28;;;11.69;81.39
18678;BME280;9469;51.114;13.914;2023-05-19T00:16:08;99664.84;;;11.69;81.26
18678;BME280;9469;51.114;13.914;2023-05-19T00:21:14;99669.38;;;11.68;82.06
18678;BME280;9469;51.114;13.914;2023-05-19T00:26:22;99670.25;;;11.59;81.85
18678;BME280;9469;51.114;13.914;2023-05-19T00:31:33;99664.13;;;11.58;82.04
18678;BME280;9469;51.114;13.914;2023-05-19T00:36:39;99668.22;;;11.50;82.80
18678;BME280;9469;51.114;13.914;2023-05-19T00:41:50;99666.06;;;11.52;83.29
18678;BME280;9469;51.114;13.914;2023-05-19T00:46:56;99667.25;;;11.41;84.47
18678;BME280;9469;51.114;13.914;2023-05-19T00:52:02;99658.53;;;11.31;84.82
18678;BME280;9469;51.114;13.914;2023-05-19T00:57:12;99658.94;;;11.19;84.64
18678;BME280;9469;51.114;13.914;2023-05-19T01:02:18;99660.09;;;11.37;85.18
18678;BME280;9469;51.114;13.914;2023-05-19T01:07:24;99656.00;;;11.44;84.98
18678;BME280;9469;51.114;13.914;2023-05-19T01:12:32;99658.59;;;11.26;85.12
18678;BME280;9469;51.114;13.914;2023-05-19T01:17:43;99659.63;;;11.53;84.26
18678;BME280;9469;51.114;13.914;2023-05-19T01:23:19;99641.31;;;11.47;86.85
18678;BME280;9469;51.114;13.914;2023-05-19T01:28:52;99654.09;;;11.50;85.57
18678;BME280;9469;51.114;13.914;2023-05-19T01:34:04;99651.59;;;11.35;88.72
18678;BME280;9469;51.114;13.914;2023-05-19T01:39:13;99650.09;;;11.24;89.53
18678;BME280;9469;51.114;13.914;2023-05-19T01:44:19;99653.97;;;11.36;90.29
18678;BME280;9469;51.114;13.914;2023-05-19T01:49:26;99663.47;;;11.19;91.67
18678;BME280;9469;51.114;13.914;2023-05-19T01:54:33;99661.84;;;11.18;91.12
18678;BME280;9469;51.114;13.914;2023-05-19T01:59:46;99664.16;;;10.67;94.01
18678;BME280;9469;51.114;13.914;2023-05-19T02:05:06;99657.72;;;10.73;93.47
18678;BME280;9469;51.114;13.914;2023-05-19T02:10:15;99655.22;;;10.48;95.57
18678;BME280;9469;51.114;13.914;2023-05-19T02:15:24;99648.47;;;10.27;97.66
18678;BME280;9469;51.114;13.914;2023-05-19T02:20:32;99656.19;;;10.18;97.47
18678;BME280;9469;51.114;13.914;2023-05-19T02:25:40;99646.66;;;10.07;98.56
18678;BME280;9469;51.114;13.914;2023-05-19T02:30:46;99649.88;;;10.04;98.01
18678;BME280;9469;51.114;13.914;2023-05-19T02:35:54;99640.34;;;9.93;97.46
18678;BME280;9469;51.114;13.914;2023-05-19T02:40:59;99636.59;;;10.04;96.56
18678;BME280;9469;51.114;13.914;2023-05-19T02:46:07;99641.13;;;9.98;96.91
18678;BME280;9469;51.114;13.914;2023-05-19T02:51:15;99650.75;;;10.38;95.72
18678;BME280;9469;51.114;13.914;2023-05-19T02:56:20;99646.22;;;10.44;95.96
18678;BME280;9469;51.114;13.914;2023-05-19T03:01:25;99639.69;;;10.26;97.12
18678;BME280;9469;51.114;13.914;2023-05-19T03:06:33;99632.81;;;10.10;97.82
18678;BME280;9469;51.114;13.914;2023-05-19T03:11:39;99634.69;;;10.04;98.45
18678;BME280;9469;51.114;13.914;2023-05-19T03:16:44;99640.75;;;10.20;96.76
18678;BME280;9469;51.114;13.914;2023-05-19T03:21:53;99635.75;;;10.08;97.75
18678;BME280;9469;51.114;13.914;2023-05-19T03:26:59;99635.31;;;9.86;99.46
18678;BME280;9469;51.114;13.914;2023-05-19T03:32:06;99626.84;;;9.79;99.97
18678;BME280;9469;51.114;13.914;2023-05-19T03:37:17;99633.19;;;9.88;98.73
18678;BME280;9469;51.114;13.914;2023-05-19T03:42:22;99627.75;;;10.19;95.93
18678;BME280;9469;51.114;13.914;2023-05-19T03:47:27;99627.25;;;9.32;99.69
18678;BME280;9469;51.114;13.914;2023-05-19T03:52:46;99649.09;;;8.94;100.00
18678;BME280;9469;51.114;13.914;2023-05-19T03:58:03;99642.78;;;9.84;99.48
18678;BME280;9469;51.114;13.914;2023-05-19T04:03:10;99651.63;;;9.65;100.00
18678;BME280;9469;51.114;13.914;2023-05-19T04:08:18;99650.75;;;9.84;100.00
18678;BME280;9469;51.114;13.914;2023-05-19T04:13:23;99648.19;;;10.28;97.13
18678;BME280;9469;51.114;13.914;2023-05-19T04:18:29;99647.44;;;10.07;97.80
18678;BME280;9469;51.114;13.914;2023-05-19T04:23:37;99650.44;;;9.96;99.03
18678;BME280;9469;51.114;13.914;2023-05-19T04:28:44;99652.47;;;10.19;97.39
18678;BME280;9469;51.114;13.914;2023-05-19T04:33:51;99637.81;;;10.27;99.28
18678;BME280;9469;51.114;13.914;2023-05-19T04:38:59;99641.69;;;10.44;97.24
18678;BME280;9469;51.114;13.914;2023-05-19T04:44:08;99645.06;;;10.55;96.68
18678;BME280;9469;51.114;13.914;2023-05-19T04:49:15;99644.34;;;10.44;96.31
18678;BME280;9469;51.114;13.914;2023-05-19T04:54:27;99627.63;;;10.72;95.86
18678;BME280;9469;51.114;13.914;2023-05-19T04:59:38;99626.91;;;10.67;96.13
18678;BME280;9469;51.114;13.914;2023-05-19T05:04:43;99640.41;;;11.04;94.57
18678;BME280;9469;51.114;13.914;2023-05-19T05:09:56;99630.81;;;10.74;95.65
18678;BME280;9469;51.114;13.914;2023-05-19T05:15:08;99630.78;;;10.79;95.66
18678;BME280;9469;51.114;13.914;2023-05-19T05:20:16;99624.38;;;11.38;94.26
18678;BME280;9469;51.114;13.914;2023-05-19T05:25:29;99630.16;;;11.45;93.26
18678;BME280;9469;51.114;13.914;2023-05-19T05:30:37;99618.88;;;11.53;92.13
18678;BME280;9469;51.114;13.914;2023-05-19T05:35:45;99629.94;;;11.65;91.45
18678;BME280;9469;51.114;13.914;2023-05-19T05:40:56;99630.66;;;11.47;93.09
18678;BME280;9469;51.114;13.914;2023-05-19T05:46:09;99632.56;;;11.94;90.06
18678;BME280;9469;51.114;13.914;2023-05-19T05:51:20;99640.50;;;11.75;90.86
18678;BME280;9469;51.114;13.914;2023-05-19T05:56:33;99649.59;;;12.16;89.15
18678;BME280;9469;51.114;13.914;2023-05-19T06:01:43;99639.50;;;12.32;88.57
18678;BME280;9469;51.114;13.914;2023-05-19T06:06:59;99649.16;;;12.09;90.05
18678;BME280;9469;51.114;13.914;2023-05-19T06:12:13;99635.88;;;12.42;88.83
18678;BME280;9469;51.114;13.914;2023-05-19T06:17:23;99645.69;;;12.65;88.58
18678;BME280;9469;51.114;13.914;2023-05-19T06:22:37;99650.38;;;13.05;86.47
18678;BME280;9469;51.114;13.914;2023-05-19T06:27:48;99642.78;;;13.12;86.54
18678;BME280;9469;51.114;13.914;2023-05-19T06:32:55;99649.38;;;14.01;80.82
18678;BME280;9469;51.114;13.914;2023-05-19T06:38:02;99650.75;;;14.12;82.78
18678;BME280;9469;51.114;13.914;2023-05-19T06:43:13;99646.44;;;14.25;79.50
18678;BME280;9469;51.114;13.914;2023-05-19T06:48:36;99646.06;;;14.89;75.79
18678;BME280;9469;51.114;13.914;2023-05-19T06:53:45;99641.75;;;16.80;71.36
18678;BME280;9469;51.114;13.914;2023-05-19T06:58:53;99666.56;;;14.94;77.15
18678;BME280;9469;51.114;13.914;2023-05-19T07:04:04;99653.25;;;14.09;81.25
18678;BME280;9469;51.114;13.914;2023-05-19T07:09:11;99644.72;;;13.80;81.16
18678;BME280;9469;51.114;13.914;2023-05-19T07:14:20;99644.09;;;14.81;78.04
18678;BME280;9469;51.114;13.914;2023-05-19T07:19:27;99646.91;;;14.76;78.59
18678;BME280;9469;51.114;13.914;2023-05-19T07:24:34;99639.81;;;14.36;80.67
18678;BME280;9469;51.114;13.914;2023-05-19T07:29:45;99635.94;;;14.42;79.45
18678;BME280;9469;51.114;13.914;2023-05-19T07:34:51;99634.38;;;14.85;76.14
18678;BME280;9469;51.114;13.914;2023-05-19T07:40:05;99638.50;;;14.69;72.50
18678;BME280;9469;51.114;13.914;2023-05-19T07:45:14;99652.03;;;14.86;73.16
18678;BME280;9469;51.114;13.914;2023-05-19T07:50:21;99642.66;;;14.75;73.21
18678;BME280;9469;51.114;13.914;2023-05-19T07:55:35;99629.00;;;14.63;76.70
18678;BME280;9469;51.114;13.914;2023-05-19T08:00:43;99629.75;;;16.34;72.26
18678;BME280;9469;51.114;13.914;2023-05-19T08:05:49;99627.50;;;14.71;75.80
18678;BME280;9469;51.114;13.914;2023-05-19T08:10:54;99612.03;;;15.51;74.16
18678;BME280;9469;51.114;13.914;2023-05-19T08:16:02;99628.34;;;14.80;75.78
18678;BME280;9469;51.114;13.914;2023-05-19T08:21:09;99619.53;;;15.80;73.72
18678;BME280;9469;51.114;13.914;2023-05-19T08:26:14;99617.34;;;15.82;73.46
18678;BME280;9469;51.114;13.914;2023-05-19T08:31:22;99627.03;;;15.61;73.33
18678;BME280;9469;51.114;13.914;2023-05-19T08:36:29;99627.13;;;15.78;74.41
18678;BME280;9469;51.114;13.914;2023-05-19T08:41:36;99627.16;;;15.95;74.20
18678;BME280;9469;51.114;13.914;2023-05-19T08:46:46;99607.78;;;16.41;75.33
18678;BME280;9469;51.114;13.914;2023-05-19T08:51:59;99619.00;;;16.60;69.46
18678;BME280;9469;51.114;13.914;2023-05-19T08:57:12;99595.94;;;16.68;69.03
18678;BME280;9469;51.114;13.914;2023-05-19T09:02:21;99598.94;;;16.66;70.25
18678;BME280;9469;51.114;13.914;2023-05-19T09:07:28;99612.97;;;16.37;70.03
18678;BME280;9469;51.114;13.914;2023-05-19T09:12:37;99599.09;;;16.18;69.96
18678;BME280;9469;51.114;13.914;2023-05-19T09:17:46;99589.66;;;17.10;68.06
18678;BME280;9469;51.114;13.914;2023-05-19T09:22:52;99599.97;;;15.88;69.34
18678;BME280;9469;51.114;13.914;2023-05-19T09:27:58;99596.25;;;16.40;68.69
18678;BME280;9469;51.114;13.914;2023-05-19T09:33:10;99604.13;;;16.11;69.96
18678;BME280;9469;51.114;13.914;2023-05-19T09:38:17;99596.88;;;16.20;69.71
18678;BME280;9469;51.114;13.914;2023-05-19T09:43:26;99598.28;;;16.18;70.47
18678;BME280;9469;51.114;13.914;2023-05-19T09:48:38;99589.91;;;16.19;71.78
18678;BME280;9469;51.114;13.914;2023-05-19T09:53:45;99584.16;;;17.44;69.67
18678;BME280;9469;51.114;13.914;2023-05-19T09:58:51;99588.03;;;17.93;67.99
18678;BME280;9469;51.114;13.914;2023-05-19T10:03:59;99574.25;;;17.36;68.98
18678;BME280;9469;51.114;13.914;2023-05-19T10:09:07;99570.47;;;16.82;70.38
18678;BME280;9469;51.114;13.914;2023-05-19T10:14:13;99559.03;;;16.94;70.14
18678;BME280;9469;51.114;13.914;2023-05-19T10:19:26;99567.78;;;15.88;72.45
18678;BME280;9469;51.114;13.914;2023-05-19T10:24:36;99569.88;;;16.68;72.77
18678;BME280;9469;51.114;13.914;2023-05-19T10:29:44;99563.94;;;16.92;71.65
18678;BME280;9469;51.114;13.914;2023-05-19T10:35:23;99560.38;;;17.17;69.77
18678;BME280;9469;51.114;13.914;2023-05-19T10:40:39;99560.41;;;17.55;69.13
18678;BME280;9469;51.114;13.914;2023-05-19T10:45:50;99564.16;;;17.62;69.83
18678;BME280;9469;51.114;13.914;2023-05-19T10:51:04;99554.16;;;16.96;70.61
18678;BME280;9469;51.114;13.914;2023-05-19T10:56:27;99553.38;;;16.87;69.77
18678;BME280;9469;51.114;13.914;2023-05-19T11:01:35;99567.75;;;16.91;70.07
18678;BME280;9469;51.114;13.914;2023-05-19T11:06:50;99551.41;;;16.67;71.70
18678;BME280;9469;51.114;13.914;2023-05-19T11:11:55;99552.09;;;17.31;71.26
18678;BME280;9469;51.114;13.914;2023-05-19T11:17:12;99553.22;;;17.30;70.58
18678;BME280;9469;51.114;13.914;2023-05-19T11:22:22;99554.88;;;16.07;73.53
18678;BME280;9469;51.114;13.914;2023-05-19T11:27:29;99555.88;;;17.38;71.31
18678;BME280;9469;51.114;13.914;2023-05-19T11:32:35;99564.75;;;17.39;71.51
18678;BME280;9469;51.114;13.914;2023-05-19T11:37:46;99556.81;;;17.71;69.52
18678;BME280;9469;51.114;13.914;2023-05-19T11:42:53;99539.28;;;17.65;71.10
18678;BME280;9469;51.114;13.914;2023-05-19T11:47:59;99560.75;;;17.07;72.26
18678;BME280;9469;51.114;13.914;2023-05-19T11:53:10;99556.88;;;16.79;72.89
18678;BME280;9469;51.114;13.914;2023-05-19T11:58:16;99545.78;;;17.64;71.21
18678;BME280;9469;51.114;13.914;2023-05-19T12:03:23;99548.63;;;17.30;74.31
18678;BME280;9469;51.114;13.914;2023-05-19T12:08:34;99548.16;;;18.28;70.21
18678;BME280;9469;51.114;13.914;2023-05-19T12:13:40;99560.50;;;16.83;73.21
18678;BME280;9469;51.114;13.914;2023-05-19T12:18:48;99546.59;;;17.27;73.91
18678;BME280;9469;51.114;13.914;2023-05-19T12:23:58;99546.78;;;17.22;72.82
18678;BME280;9469;51.114;13.914;2023-05-19T12:29:08;99548.94;;;17.29;72.26
18678;BME280;9469;51.114;13.914;2023-05-19T12:34:16;99544.59;;;16.52;73.12
18678;BME280;9469;51.114;13.914;2023-05-19T12:39:24;99537.88;;;17.30;71.33
18678;BME280;9469;51.114;13.914;2023-05-19T12:44:29;99526.66;;;16.90;71.93
18678;BME280;9469;51.114;13.914;2023-05-19T12:49:35;99542.00;;;17.86;70.78
18678;BME280;9469;51.114;13.914;2023-05-19T12:54:45;99542.31;;;17.84;71.32
18678;BME280;9469;51.114;13.914;2023-05-19T12:59:50;99535.59;;;17.03;71.01
18678;BME280;9469;51.114;13.914;2023-05-19T13:04:58;99523.19;;;17.28;73.19
18678;BME280;9469;51.114;13.914;2023-05-19T13:10:09;99522.34;;;17.36;73.97
18678;BME280;9469;51.114;13.914;2023-05-19T13:15:17;99510.91;;;17.97;72.24
18678;BME280;9469;51.114;13.914;2023-05-19T13:20:24;99529.34;;;17.66;73.27
18678;BME280;9469;51.114;13.914;2023-05-19T13:25:32;99510.34;;;17.62;72.90
18678;BME280;9469;51.114;13.914;2023-05-19T13:30:39;99528.72;;;16.93;75.25
18678;BME280;9469;51.114;13.914;2023-05-19T13:35:45;99504.94;;;17.04;76.55
18678;BME280;9469;51.114;13.914;2023-05-19T13:40:53;99510.34;;;16.95;76.41
18678;BME280;9469;51.114;13.914;2023-05-19T13:46:00;99500.41;;;17.83;74.32
18678;BME280;9469;51.114;13.914;2023-05-19T13:51:09;99510.41;;;16.78;77.19
18678;BME280;9469;51.114;13.914;2023-05-19T13:56:17;99520.44;;;16.43;77.13
18678;BME280;9469;51.114;13.914;2023-05-19T14:01:23;99522.44;;;16.72;75.42
18678;BME280;9469;51.114;13.914;2023-05-19T14:06:28;99513.50;;;16.97;76.74
18678;BME280;9469;51.114;13.914;2023-05-19T14:11:36;99503.00;;;16.75;75.96
18678;BME280;9469;51.114;13.914;2023-05-19T14:16:44;99491.09;;;18.14;73.92
18678;BME280;9469;51.114;13.914;2023-05-19T14:21:49;99511.16;;;16.96;76.75
18678;BME280;9469;51.114;13.914;2023-05-19T14:26:57;99501.31;;;16.45;80.41
18678;BME280;9469;51.114;13.914;2023-05-19T14:32:03;99518.53;;;16.35;80.67
18678;BME280;9469;51.114;13.914;2023-05-19T14:37:11;99511.25;;;16.62;79.94
18678;BME280;9469;51.114;13.914;2023-05-19T14:42:19;99520.44;;;16.52;80.10
18678;BME280;9469;51.114;13.914;2023-05-19T14:47:24;99507.81;;;16.53;81.05
18678;BME280;9469;51.114;13.914;2023-05-19T14:52:29;99500.38;;;16.41;80.91
18678;BME280;9469;51.114;13.914;2023-05-19T14:57:37;99501.66;;;16.18;81.61
18678;BME280;9469;51.114;13.914;2023-05-19T15:02:42;99506.41;;;15.78;82.72
18678;BME280;9469;51.114;13.914;2023-05-19T15:07:47;99523.91;;;16.35;81.80
18678;BME280;9469;51.114;13.914;2023-05-19T15:12:56;99519.66;;;16.00;82.23
18678;BME280;9469;51.114;13.914;2023-05-19T15:18:03;99510.19;;;16.37;81.82
18678;BME280;9469;51.114;13.914;2023-05-19T15:23:08;99511.91;;;16.41;80.78
18678;BME280;9469;51.114;13.914;2023-05-19T15:28:18;99529.56;;;15.65;84.84
18678;BME280;9469;51.114;13.914;2023-05-19T15:33:23;99523.50;;;15.43;85.87
18678;BME280;9469;51.114;13.914;2023-05-19T15:38:29;99522.44;;;15.13;86.75
18678;BME280;9469;51.114;13.914;2023-05-19T15:43:40;99522.44;;;15.13;86.34
18678;BME280;9469;51.114;13.914;2023-05-19T15:48:47;99515.19;;;15.14;86.31
18678;BME280;9469;51.114;13.914;2023-05-19T15:53:53;99522.22;;;15.40;85.98
18678;BME280;9469;51.114;13.914;2023-05-19T15:59:02;99531.31;;;15.22;86.39
18678;BME280;9469;51.114;13.914;2023-05-19T16:04:09;99524.31;;;14.73;88.19
18678;BME280;9469;51.114;13.914;2023-05-19T16:09:19;99530.66;;;15.17;87.50
18678;BME280;9469;51.114;13.914;2023-05-19T16:14:29;99542.94;;;15.09;87.80
18678;BME280;9469;51.114;13.914;2023-05-19T16:19:40;99552.81;;;15.00;88.53
18678;BME280;9469;51.114;13.914;2023-05-19T16:24:45;99542.63;;;15.11;88.70
18678;BME280;9469;51.114;13.914;2023-05-19T16:29:54;99548.69;;;14.94;89.17
18678;BME280;9469;51.114;13.914;2023-05-19T16:35:02;99536.03;;;14.55;90.50
18678;BME280;9469;51.114;13.914;2023-05-19T16:40:08;99538.50;;;15.04;89.21
18678;BME280;9469;51.114;13.914;2023-05-19T16:45:16;99542.00;;;14.52;90.62
18678;BME280;9469;51.114;13.914;2023-05-19T16:50:29;99553.00;;;14.51;90.79
18678;BME280;9469;51.114;13.914;2023-05-19T16:55:35;99560.44;;;14.54;91.54
18678;BME280;9469;51.114;13.914;2023-05-19T17:00:43;99561.56;;;14.61;91.20
18678;BME280;9469;51.114;13.914;2023-05-19T17:05:49;99549.44;;;14.33;92.32
18678;BME280;9469;51.114;13.914;2023-05-19T17:10:54;99545.41;;;14.44;92.61
18678;BME280;9469;51.114;13.914;2023-05-19T17:16:02;99531.59;;;14.51;92.60
18678;BME280;9469;51.114;13.914;2023-05-19T17:21:10;99539.78;;;14.54;92.71
18678;BME280;9469;51.114;13.914;2023-05-19T17:26:21;99542.25;;;14.42;93.28
18678;BME280;9469;51.114;13.914;2023-05-19T17:31:30;99542.72;;;14.44;92.93
18678;BME280;9469;51.114;13.914;2023-05-19T17:36:35;99539.47;;;14.47;93.36
18678;BME280;9469;51.114;13.914;2023-05-19T17:41:43;99522.38;;;14.21;93.78
18678;BME280;9469;51.114;13.914;2023-05-19T17:46:52;99535.00;;;14.07;94.72
18678;BME280;9469;51.114;13.914;2023-05-19T17:52:01;99531.06;;;14.04;94.96
18678;BME280;9469;51.114;13.914;2023-05-19T17:57:14;99531.88;;;13.91;95.94
18678;BME280;9469;51.114;13.914;2023-05-19T18:08:50;99537.84;;;13.88;95.86
18678;BME280;9469;51.114;13.914;2023-05-19T18:20:15;99541.16;;;13.72;97.40
18678;BME280;9469;51.114;13.914;2023-05-19T18:26:07;99530.38;;;13.63;97.77
18678;BME280;9469;51.114;13.914;2023-05-19T18:31:31;99530.31;;;13.54;98.47
18678;BME280;9469;51.114;13.914;2023-05-19T18:42:57;99541.06;;;13.63;99.49
18678;BME280;9469;51.114;13.914;2023-05-19T18:48:11;99531.78;;;13.60;99.35
18678;BME280;9469;51.114;13.914;2023-05-19T18:53:20;99534.75;;;13.45;100.00
18678;BME280;9469;51.114;13.914;2023-05-19T19:04:51;99540.13;;;13.32;100.00
18678;BME280;9469;51.114;13.914;2023-05-19T19:09:57;99530.50;;;13.44;100.00
18678;BME280;9469;51.114;13.914;2023-05-19T19:15:07;99554.84;;;13.29;100.00
18678;BME280;9469;51.114;13.914;2023-05-19T19:20:16;99532.19;;;13.13;100.00
18678;BME280;9469;51.114;13.914;2023-05-19T19:25:25;99550.47;;;13.06;100.00
18678;BME280;9469;51.114;13.914;2023-05-19T19:30:32;99558.13;;;13.26;100.00
18678;BME280;9469;51.114;13.914;2023-05-19T19:35:48;99567.91;;;13.17;100.00
18678;BME280;9469;51.114;13.914;2023-05-19T19:40:57;99553.84;;;13.12;100.00
18678;BME280;9469;51.114;13.914;2023-05-19T19:46:03;99549.47;;;13.02;100.00
18678;BME280;9469;51.114;13.914;2023-05-19T19:51:13;99559.50;;;13.10;100.00
18678;BME280;9469;51.114;13.914;2023-05-19T19:56:19;99559.66;;;13.00;100.00
18678;BME280;9469;51.114;13.914;2023-05-19T20:01:27;99541.63;;;12.92;100.00
18678;BME280;9469;51.114;13.914;2023-05-19T20:06:37;99563.91;;;13.01;100.00
18678;BME280;9469;51.114;13.914;2023-05-19T20:11:44;99558.34;;;12.84;100.00
18678;BME280;9469;51.114;13.914;2023-05-19T20:16:50;99552.28;;;12.78;100.00
18678;BME280;9469;51.114;13.914;2023-05-19T20:22:04;99561.88;;;12.79;100.00
18678;BME280;9469;51.114;13.914;2023-05-19T20:27:10;99543.59;;;12.73;100.00
18678;BME280;9469;51.114;13.914;2023-05-19T20:32:16;99556.81;;;12.78;100.00
18678;BME280;9469;51.114;13.914;2023-05-19T20:37:25;99554.25;;;12.73;100.00
18678;BME280;9469;51.114;13.914;2023-05-19T20:42:31;99553.63;;;12.62;100.00
18678;BME280;9469;51.114;13.914;2023-05-19T20:47:37;99557.00;;;12.68;100.00
18678;BME280;9469;51.114;13.914;2023-05-19T20:52:45;99538.16;;;12.46;100.00
18678;BME280;9469;51.114;13.914;2023-05-19T20:57:51;99559.16;;;12.52;100.00
18678;BME280;9469;51.114;13.914;2023-05-19T21:02:57;99548.84;;;12.46;100.00
18678;BME280;9469;51.114;13.914;2023-05-19T21:08:08;99558.47;;;12.60;100.00
18678;BME280;9469;51.114;13.914;2023-05-19T21:13:17;99542.72;;;12.45;100.00
18678;BME280;9469;51.114;13.914;2023-05-19T21:18:23;99539.81;;;12.42;100.00
18678;BME280;9469;51.114;13.914;2023-05-19T21:23:31;99543.09;;;12.39;100.00
18678;BME280;9469;51.114;13.914;2023-05-19T21:28:37;99561.44;;;12.59;100.00
18678;BME280;9469;51.114;13.914;2023-05-19T21:33:43;99568.28;;;12.46;100.00
18678;BME280;9469;51.114;13.914;2023-05-19T21:38:54;99552.97;;;12.38;100.00
18678;BME280;9469;51.114;13.914;2023-05-19T21:44:01;99550.00;;;12.40;100.00
18678;BME280;9469;51.114;13.914;2023-05-19T21:49:10;99567.41;;;12.51;100.00
18678;BME280;9469;51.114;13.914;2023-05-19T21:54:20;99561.16;;;12.42;100.00
18678;BME280;9469;51.114;13.914;2023-05-19T21:59:27;99552.59;;;12.45;100.00
18678;BME280;9469;51.114;13.914;2023-05-19T22:04:34;99540.69;;;12.37;100.00
18678;BME280;9469;51.114;13.914;2023-05-19T22:09:43;99543.16;;;12.34;100.00
18678;BME280;9469;51.114;13.914;2023-05-19T22:14:50;99545.31;;;12.32;100.00
18678;BME280;9469;51.114;13.914;2023-05-19T22:19:56;99547.38;;;12.21;100.00
18678;BME280;9469;51.114;13.914;2023-05-19T22:25:07;99554.13;;;12.32;100.00
18678;BME280;9469;51.114;13.914;2023-05-19T22:30:14;99539.56;;;12.24;100.00
18678;BME280;9469;51.114;13.914;2023-05-19T22:35:20;99547.44;;;12.16;100.00
18678;BME280;9469;51.114;13.914;2023-05-19T22:40:29;99545.91;;;12.29;100.00
18678;BME280;9469;51.114;13.914;2023-05-19T22:45:38;99534.38;;;12.14;100.00
18678;BME280;9469;51.114;13.914;2023-05-19T22:50:44;99519.59;;;12.03;100.00
18678;BME280;9469;51.114;13.914;2023-05-19T22:55:53;99522.00;;;12.05;100.00
18678;BME280;9469;51.114;13.914;2023-05-19T23:00:58;99537.63;;;12.11;100.00
18678;BME280;9469;51.114;13.914;2023-05-19T23:06:04;99518.78;;;11.89;100.00
18678;BME280;9469;51.114;13.914;2023-05-19T23:11:13;99513.66;;;11.93;100.00
18678;BME280;9469;51.114;13.914;2023-05-19T23:16:19;99512.56;;;11.75;100.00
18678;BME280;9469;51.114;13.914;2023-05-19T23:21:25;99523.00;;;11.72;100.00
18678;BME280;9469;51.114;13.914;2023-05-19T23:26:34;99536.63;;;11.70;100.00
18678;BME280;9469;51.114;13.914;2023-05-19T23:31:40;99550.06;;;11.60;100.00
18678;BME280;9469;51.114;13.914;2023-05-19T23:36:47;99531.41;;;11.60;100.00
18678;BME280;9469;51.114;13.914;2023-05-19T23:41:57;99542.06;;;11.60;100.00
18678;BME280;9469;51.114;13.914;2023-05-19T23:47:03;99545.78;;;11.59;100.00
18678;BME280;9469;51.114;13.914;2023-05-19T23:52:14;99517.41;;;11.49;100.00
18678;BME280;9469;51.114;13.914;2023-05-19T23:57:22;99514.13;;;11.58;100.00
